createdAt,value
2022-09-28T00:01:40.703Z,69.66
2022-09-28T00:04:47.706Z,69.81
2022-09-28T00:07:44.521Z,69.84
2022-09-28T00:13:43.741Z,69.90
2022-09-28T00:16:35.836Z,70.02
2022-09-28T00:19:17.746Z,69.78
2022-09-28T00:22:00.593Z,69.97
2022-09-28T00:24:49.695Z,69.97
2022-09-28T00:27:41.965Z,69.91
2022-09-28T00:30:29.725Z,69.98
2022-09-28T00:33:11.665Z,69.77
2022-09-28T00:36:00.491Z,69.84
2022-09-28T00:38:41.629Z,69.94
2022-09-28T00:44:39.695Z,69.84
2022-09-28T00:47:17.707Z,69.95
2022-09-28T00:50:10.648Z,70.12
2022-09-28T00:53:07.568Z,69.95
2022-09-28T00:55:54.622Z,70.00
2022-09-28T00:58:47.652Z,69.93
2022-09-28T01:01:35.618Z,69.85
2022-09-28T01:04:16.588Z,69.88
2022-09-28T01:06:51.507Z,70.09
2022-09-28T01:09:50.648Z,70.21
2022-09-28T01:12:41.506Z,70.15
2022-09-28T01:15:31.617Z,70.19
2022-09-28T01:18:25.637Z,70.13
2022-09-28T01:21:06.628Z,70.03
2022-09-28T01:23:57.526Z,69.98
2022-09-28T01:26:55.586Z,70.03
2022-09-28T01:30:07.025Z,70.12
2022-09-28T01:33:08.760Z,70.10
2022-09-28T01:35:59.627Z,70.20
2022-09-28T01:38:58.547Z,69.86
2022-09-28T01:41:47.517Z,69.90
2022-09-28T01:44:31.449Z,69.84
2022-09-28T01:47:14.469Z,69.96
2022-09-28T01:49:58.526Z,70.07
2022-09-28T01:52:49.569Z,70.15
2022-09-28T01:55:40.457Z,70.12
2022-09-28T01:58:24.517Z,70.13
2022-09-28T02:01:11.872Z,69.98
2022-09-28T02:03:59.446Z,70.00
2022-09-28T02:06:50.591Z,70.09
2022-09-28T02:09:43.728Z,70.21
2022-09-28T02:12:41.725Z,70.30
2022-09-28T02:15:42.467Z,70.17
2022-09-28T02:18:30.618Z,70.15
2022-09-28T02:21:20.598Z,70.04
2022-09-28T02:24:21.240Z,69.99
2022-09-28T02:27:10.775Z,70.17
2022-09-28T02:29:53.418Z,70.16
2022-09-28T02:32:28.407Z,70.29
2022-09-28T02:35:07.411Z,70.24
2022-09-28T02:37:45.508Z,70.24
2022-09-28T02:40:30.805Z,70.19
2022-09-28T02:43:24.624Z,70.29
2022-09-28T02:46:14.498Z,70.00
2022-09-28T02:49:30.738Z,69.96
2022-09-28T02:52:40.372Z,70.03
2022-09-28T02:56:04.589Z,70.15
2022-09-28T02:58:49.623Z,70.28
2022-09-28T03:01:57.673Z,70.26
2022-09-28T03:04:53.429Z,70.06
2022-09-28T03:07:44.629Z,70.14
2022-09-28T03:10:47.591Z,70.05
2022-09-28T03:13:34.899Z,70.01
2022-09-28T03:16:21.552Z,70.17
2022-09-28T03:19:15.476Z,70.13
2022-09-28T03:22:06.067Z,70.19
2022-09-28T03:24:56.560Z,70.05
2022-09-28T03:27:42.493Z,70.03
2022-09-28T03:30:28.489Z,70.02
2022-09-28T03:33:16.377Z,69.86
2022-09-28T03:36:01.292Z,69.92
2022-09-28T03:38:50.530Z,70.01
2022-09-28T03:41:37.417Z,70.01
2022-09-28T03:44:34.466Z,69.89
2022-09-28T03:47:23.397Z,70.10
2022-09-28T03:50:15.372Z,70.17
2022-09-28T03:53:08.581Z,69.94
2022-09-28T03:55:47.347Z,70.04
2022-09-28T03:58:27.642Z,69.97
2022-09-28T04:01:12.945Z,70.13
2022-09-28T04:04:00.515Z,70.30
2022-09-28T04:06:45.266Z,70.11
2022-09-28T04:09:23.461Z,70.13
2022-09-28T04:12:04.376Z,70.12
2022-09-28T04:14:51.439Z,69.94
2022-09-28T04:17:30.466Z,70.28
2022-09-28T04:20:18.488Z,70.55
2022-09-28T04:23:16.595Z,70.40
2022-09-28T04:25:59.248Z,70.53
2022-09-28T04:29:09.479Z,70.54
2022-09-28T04:32:12.798Z,70.31
2022-09-28T04:35:02.453Z,70.30
2022-09-28T04:37:44.506Z,70.35
2022-09-28T04:40:18.353Z,70.37
2022-09-28T04:43:07.757Z,70.39
2022-09-28T04:45:52.415Z,70.58
2022-09-28T04:48:28.470Z,70.57
2022-09-28T04:51:20.645Z,70.59
2022-09-28T04:54:01.455Z,70.69
2022-09-28T04:56:41.640Z,70.75
2022-09-28T04:59:28.329Z,70.72
2022-09-28T05:02:04.524Z,70.86
2022-09-28T05:05:05.504Z,70.71
2022-09-28T05:08:06.527Z,70.83
2022-09-28T05:10:43.084Z,70.68
2022-09-28T05:13:38.785Z,70.86
2022-09-28T05:16:22.593Z,70.93
2022-09-28T05:19:21.540Z,70.75
2022-09-28T05:22:05.181Z,70.82
2022-09-28T05:25:00.684Z,71.06
2022-09-28T05:28:02.216Z,71.09
2022-09-28T05:31:05.241Z,71.28
2022-09-28T05:34:14.466Z,70.99
2022-09-28T05:36:57.321Z,70.99
2022-09-28T05:39:40.591Z,70.97
2022-09-28T05:42:25.469Z,71.15
2022-09-28T05:44:56.139Z,71.04
2022-09-28T05:47:28.493Z,71.26
2022-09-28T05:49:58.798Z,71.16
2022-09-28T05:52:29.508Z,71.34
2022-09-28T05:55:00.285Z,71.06
2022-09-28T05:57:32.894Z,71.02
2022-09-28T06:00:06.230Z,71.17
2022-09-28T06:02:42.934Z,71.26
2022-09-28T06:05:16.249Z,71.09
2022-09-28T06:07:46.780Z,71.11
2022-09-28T06:10:17.452Z,71.32
2022-09-28T06:12:49.056Z,71.19
2022-09-28T06:15:19.697Z,70.97
2022-09-28T06:17:50.427Z,71.22
2022-09-28T06:20:44.587Z,71.15
2022-09-28T06:23:18.033Z,71.28
2022-09-28T06:25:48.597Z,71.15
2022-09-28T06:28:20.365Z,71.20
2022-09-28T06:30:50.813Z,70.89
2022-09-28T06:33:22.268Z,70.97
2022-09-28T06:35:53.913Z,71.00
2022-09-28T06:38:24.484Z,70.82
2022-09-28T06:40:55.467Z,71.22
2022-09-28T06:43:26.228Z,71.18
2022-09-28T06:46:28.409Z,71.21
2022-09-28T06:49:22.201Z,71.27
2022-09-28T06:52:12.423Z,71.61
2022-09-28T06:55:20.266Z,71.33
2022-09-28T06:58:05.101Z,71.35
2022-09-28T07:00:38.215Z,71.26
2022-09-28T07:03:14.126Z,71.27
2022-09-28T07:06:24.610Z,71.22
2022-09-28T07:09:35.741Z,71.35
2022-09-28T07:12:16.834Z,71.32
2022-09-28T07:14:58.127Z,71.37
2022-09-28T07:17:32.679Z,71.64
2022-09-28T07:20:17.295Z,71.64
2022-09-28T07:22:54.548Z,71.74
2022-09-28T07:25:26.239Z,71.86
2022-09-28T07:28:22.970Z,71.46
2022-09-28T07:31:15.068Z,71.61
2022-09-28T07:34:00.843Z,71.40
2022-09-28T07:36:36.736Z,71.36
2022-09-28T07:39:08.008Z,71.39
2022-09-28T07:41:40.337Z,71.46
2022-09-28T07:44:14.105Z,71.51
2022-09-28T07:46:45.192Z,71.20
2022-09-28T07:49:27.378Z,71.19
2022-09-28T07:52:17.578Z,71.16
2022-09-28T07:55:09.869Z,71.18
2022-09-28T07:58:02.320Z,71.23
2022-09-28T08:00:55.797Z,71.30
2022-09-28T08:03:26.437Z,71.20
2022-09-28T08:06:02.238Z,71.26
2022-09-28T08:08:35.068Z,71.48
2022-09-28T08:11:10.712Z,71.45
2022-09-28T08:14:02.298Z,71.48
2022-09-28T08:17:00.155Z,71.48
2022-09-28T08:20:06.960Z,71.52
2022-09-28T08:22:39.056Z,71.48
2022-09-28T08:25:10.361Z,71.74
2022-09-28T08:27:41.254Z,71.56
2022-09-28T08:30:14.666Z,71.23
2022-09-28T08:33:08.521Z,71.29
2022-09-28T08:36:02.826Z,71.06
2022-09-28T08:38:59.682Z,70.91
2022-09-28T08:42:05.387Z,70.96
2022-09-28T08:45:08.387Z,71.21
2022-09-28T08:48:28.066Z,70.92
2022-09-28T08:51:42.370Z,70.99
2022-09-28T08:54:52.255Z,70.58
2022-09-28T08:57:54.731Z,70.60
2022-09-28T09:00:33.610Z,70.94
2022-09-28T09:03:15.772Z,70.74
2022-09-28T09:06:46.083Z,70.60
2022-09-28T09:10:30.520Z,70.21
2022-09-28T09:13:20.825Z,70.30
2022-09-28T09:16:04.980Z,70.20
2022-09-28T09:19:09.967Z,69.70
2022-09-28T09:22:23.675Z,69.63
2022-09-28T09:25:02.810Z,69.17
2022-09-28T09:27:44.087Z,69.28
2022-09-28T09:30:20.400Z,69.59
2022-09-28T09:33:13.104Z,69.42
2022-09-28T09:36:14.915Z,69.59
2022-09-28T09:39:46.487Z,69.63
2022-09-28T09:42:58.036Z,69.60
2022-09-28T09:46:16.323Z,69.64
2022-09-28T09:49:48.578Z,69.84
2022-09-28T09:52:37.804Z,70.14
2022-09-28T09:55:30.246Z,69.67
2022-09-28T09:58:31.241Z,69.34
2022-09-28T10:01:18.256Z,69.14
2022-09-28T10:04:17.702Z,69.18
2022-09-28T10:06:53.857Z,69.16
2022-09-28T10:09:44.465Z,69.00
2022-09-28T10:12:25.685Z,69.03
2022-09-28T10:14:56.722Z,69.26
2022-09-28T10:17:31.121Z,69.34
2022-09-28T10:20:22.585Z,69.37
2022-09-28T10:23:14.948Z,69.19
2022-09-28T10:25:48.489Z,68.69
2022-09-28T10:28:36.174Z,68.67
2022-09-28T10:31:36.267Z,68.56
2022-09-28T10:34:14.733Z,68.46
2022-09-28T10:37:01.050Z,68.63
2022-09-28T10:39:42.602Z,68.47
2022-09-28T10:42:20.041Z,68.46
2022-09-28T10:45:05.012Z,68.34
2022-09-28T10:47:40.345Z,68.67
2022-09-28T10:50:37.231Z,68.93
2022-09-28T10:53:22.090Z,68.99
2022-09-28T10:56:30.703Z,69.01
2022-09-28T10:59:33.379Z,68.98
2022-09-28T11:02:35.493Z,68.66
2022-09-28T11:05:24.243Z,68.48
2022-09-28T11:07:58.322Z,68.32
2022-09-28T11:10:34.994Z,68.02
2022-09-28T11:13:17.399Z,68.18
2022-09-28T11:15:55.850Z,67.98
2022-09-28T11:18:36.618Z,67.92
2022-09-28T11:21:18.277Z,67.93
2022-09-28T11:24:07.053Z,67.72
2022-09-28T11:26:46.060Z,67.64
2022-09-28T11:29:43.768Z,67.47
2022-09-28T11:32:32.405Z,67.35
2022-09-28T11:35:47.489Z,67.30
2022-09-28T11:38:38.171Z,67.19
2022-09-28T11:41:56.468Z,67.06
2022-09-28T11:44:41.707Z,66.99
2022-09-28T11:47:30.066Z,66.73
2022-09-28T11:50:24.417Z,66.65
2022-09-28T11:53:25.065Z,66.51
2022-09-28T11:56:09.000Z,66.43
2022-09-28T11:58:42.112Z,66.67
2022-09-28T12:01:31.532Z,66.80
2022-09-28T12:04:37.298Z,66.74
2022-09-28T12:07:16.003Z,66.27
2022-09-28T12:10:04.328Z,66.32
2022-09-28T12:12:41.602Z,66.25
2022-09-28T12:15:27.994Z,66.05
2022-09-28T12:18:04.700Z,66.13
2022-09-28T12:20:41.312Z,66.18
2022-09-28T12:23:17.860Z,66.40
2022-09-28T12:26:00.425Z,66.05
2022-09-28T12:28:46.015Z,65.96
2022-09-28T12:31:22.846Z,65.83
2022-09-28T12:33:54.157Z,66.01
2022-09-28T12:36:47.862Z,66.01
2022-09-28T12:39:35.575Z,65.70
2022-09-28T12:42:37.835Z,65.82
2022-09-28T12:45:21.054Z,65.64
2022-09-28T12:47:57.632Z,65.57
2022-09-28T12:51:00.042Z,65.57
2022-09-28T12:54:02.537Z,65.24
2022-09-28T12:56:50.406Z,65.35
2022-09-28T12:59:23.819Z,65.24
2022-09-28T13:02:23.411Z,65.25
2022-09-28T13:05:19.196Z,65.27
2022-09-28T13:08:26.777Z,65.10
2022-09-28T13:11:07.987Z,64.91
2022-09-28T13:13:48.495Z,65.03
2022-09-28T13:16:23.454Z,65.03
2022-09-28T13:19:13.681Z,64.83
2022-09-28T13:21:56.912Z,64.61
2022-09-28T13:24:33.647Z,64.70
2022-09-28T13:27:12.057Z,64.81
2022-09-28T13:29:43.807Z,64.74
2022-09-28T13:32:15.609Z,64.63
2022-09-28T13:34:51.115Z,64.42
2022-09-28T13:37:26.046Z,64.50
2022-09-28T13:40:09.012Z,64.40
2022-09-28T13:42:51.061Z,64.35
2022-09-28T13:45:24.647Z,64.18
2022-09-28T13:48:18.386Z,64.18
2022-09-28T13:50:54.835Z,64.25
2022-09-28T13:53:53.495Z,64.27
2022-09-28T13:56:38.791Z,64.06
2022-09-28T13:59:28.805Z,64.02
2022-09-28T14:02:24.887Z,64.22
2022-09-28T14:05:02.586Z,64.16
2022-09-28T14:07:36.127Z,64.16
2022-09-28T14:10:39.714Z,64.15
2022-09-28T14:13:14.144Z,63.87
2022-09-28T14:15:47.115Z,63.79
2022-09-28T14:18:27.601Z,63.80
2022-09-28T14:21:22.466Z,63.64
2022-09-28T14:24:09.165Z,63.71
2022-09-28T14:26:58.347Z,63.91
2022-09-28T14:29:34.238Z,63.47
2022-09-28T14:32:24.429Z,63.58
2022-09-28T14:35:04.968Z,64.04
2022-09-28T14:38:00.776Z,64.09
2022-09-28T14:41:13.419Z,64.05
2022-09-28T14:43:46.238Z,64.17
2022-09-28T14:46:19.542Z,64.13
2022-09-28T14:48:53.096Z,64.21
2022-09-28T14:51:30.534Z,64.12
2022-09-28T14:54:11.790Z,63.95
2022-09-28T14:56:47.606Z,64.20
2022-09-28T14:59:25.407Z,64.25
2022-09-28T15:02:24.884Z,64.42
2022-09-28T15:04:57.093Z,64.47
2022-09-28T15:07:44.049Z,64.47
2022-09-28T15:10:27.647Z,64.57
2022-09-28T15:12:58.810Z,64.53
2022-09-28T15:15:39.055Z,64.50
2022-09-28T15:18:28.364Z,64.33
2022-09-28T15:20:59.933Z,64.04
2022-09-28T15:23:40.770Z,64.06
2022-09-28T15:26:37.047Z,64.39
2022-09-28T15:29:19.747Z,64.63
2022-09-28T15:31:54.295Z,64.63
2022-09-28T15:34:46.820Z,64.56
2022-09-28T15:37:20.535Z,64.70
2022-09-28T15:39:55.767Z,64.82
2022-09-28T15:42:26.607Z,64.84
2022-09-28T15:45:15.713Z,64.63
2022-09-28T15:47:46.246Z,64.60
2022-09-28T15:50:28.414Z,64.72
2022-09-28T15:53:07.553Z,64.50
2022-09-28T15:55:47.228Z,64.55
2022-09-28T15:58:23.508Z,64.59
2022-09-28T16:01:22.580Z,64.70
2022-09-28T16:03:53.085Z,64.60
2022-09-28T16:06:23.867Z,64.65
2022-09-28T16:08:54.203Z,64.69
2022-09-28T16:11:33.754Z,64.75
2022-09-28T16:14:18.878Z,64.73
2022-09-28T16:16:53.594Z,64.71
2022-09-28T16:19:34.219Z,64.70
2022-09-28T16:22:09.365Z,64.86
2022-09-28T16:24:41.649Z,64.77
2022-09-28T16:27:34.050Z,64.81
2022-09-28T16:30:17.738Z,64.82
2022-09-28T16:32:50.587Z,64.81
2022-09-28T16:35:29.685Z,64.87
2022-09-28T16:38:20.788Z,64.95
2022-09-28T16:40:54.168Z,64.86
2022-09-28T16:43:29.009Z,64.91
2022-09-28T16:46:09.685Z,65.02
2022-09-28T16:48:49.056Z,64.89
2022-09-28T16:51:25.046Z,64.94
2022-09-28T16:54:12.678Z,65.03
2022-09-28T16:56:42.949Z,64.86
2022-09-28T16:59:14.019Z,65.00
2022-09-28T17:01:44.473Z,64.97
2022-09-28T17:04:15.093Z,65.04
2022-09-28T17:06:45.507Z,64.92
2022-09-28T17:09:15.998Z,64.97
2022-09-28T17:11:47.428Z,64.76
2022-09-28T17:14:23.850Z,64.77
2022-09-28T17:17:08.131Z,65.05
2022-09-28T17:19:40.175Z,64.95
2022-09-28T17:22:11.808Z,64.87
2022-09-28T17:24:42.205Z,65.02
2022-09-28T17:27:18.213Z,64.97
2022-09-28T17:29:49.048Z,64.94
2022-09-28T17:32:21.151Z,65.06
2022-09-28T17:35:00.706Z,65.13
2022-09-28T17:37:37.175Z,65.08
2022-09-28T17:40:16.212Z,65.01
2022-09-28T17:42:47.389Z,64.97
2022-09-28T17:45:18.814Z,64.91
2022-09-28T17:47:51.087Z,65.08
2022-09-28T17:50:28.430Z,65.17
2022-09-28T17:53:00.225Z,65.07
2022-09-28T17:55:33.034Z,65.12
2022-09-28T17:58:10.359Z,65.11
2022-09-28T18:00:41.321Z,65.24
2022-09-28T18:03:17.716Z,65.37
2022-09-28T18:06:04.106Z,65.54
2022-09-28T18:08:39.185Z,65.42
2022-09-28T18:11:09.611Z,65.53
2022-09-28T18:13:41.147Z,65.53
2022-09-28T18:16:11.822Z,65.48
2022-09-28T18:18:42.674Z,65.42
2022-09-28T18:21:13.205Z,65.47
2022-09-28T18:23:43.487Z,65.45
2022-09-28T18:26:19.519Z,65.29
2022-09-28T18:28:52.079Z,65.37
2022-09-28T18:31:22.724Z,65.43
2022-09-28T18:33:58.679Z,65.60
2022-09-28T18:36:35.965Z,65.50
2022-09-28T18:39:06.859Z,65.53
2022-09-28T18:46:12.016Z,65.64
2022-09-28T18:48:42.833Z,65.71
2022-09-28T18:51:14.886Z,65.59
2022-09-28T18:53:46.156Z,65.72
2022-09-28T18:56:20.542Z,65.60
2022-09-28T18:58:52.148Z,65.75
2022-09-28T19:01:32.064Z,65.79
2022-09-28T19:04:08.485Z,65.75
2022-09-28T19:06:44.902Z,65.89
2022-09-28T19:09:15.466Z,65.91
2022-09-28T19:11:45.967Z,65.78
2022-09-28T19:19:19.580Z,65.84
2022-09-28T19:21:49.939Z,65.64
2022-09-28T19:24:21.512Z,65.89
2022-09-28T19:26:53.867Z,66.03
2022-09-28T19:29:28.266Z,66.14
2022-09-28T19:31:58.905Z,66.18
2022-09-28T19:34:30.535Z,66.09
2022-09-28T19:37:04.135Z,66.15
2022-09-28T19:40:38.636Z,66.05
2022-09-28T19:43:09.265Z,66.08
2022-09-28T19:45:40.185Z,66.25
2022-09-28T19:48:10.907Z,66.06
2022-09-28T19:50:42.095Z,66.29
2022-09-28T19:53:12.403Z,66.39
2022-09-28T19:55:43.031Z,66.43
2022-09-28T19:58:13.574Z,66.45
2022-09-28T20:00:44.478Z,66.39
2022-09-28T20:03:16.024Z,66.27
2022-09-28T20:05:48.365Z,66.44
2022-09-28T20:08:19.338Z,66.32
2022-09-28T20:10:57.131Z,66.30
2022-09-28T20:14:01.357Z,66.49
2022-09-28T20:16:31.878Z,66.47
2022-09-28T20:19:04.236Z,66.55
2022-09-28T20:21:35.474Z,66.43
2022-09-28T20:28:37.793Z,66.57
2022-09-28T20:31:13.097Z,66.55
2022-09-28T20:33:44.129Z,66.58
2022-09-28T20:36:22.168Z,66.54
2022-09-28T20:38:58.737Z,66.56
2022-09-28T20:41:29.728Z,66.67
2022-09-28T20:44:04.888Z,66.63
2022-09-28T20:46:38.370Z,66.95
2022-09-28T20:49:08.911Z,67.06
2022-09-28T20:51:39.297Z,66.94
2022-09-28T20:54:41.490Z,66.90
2022-09-28T20:57:18.857Z,66.73
2022-09-28T20:59:54.515Z,66.89
2022-09-28T21:02:26.992Z,66.85
2022-09-28T21:04:57.365Z,66.79
2022-09-28T21:07:27.802Z,66.90
2022-09-28T21:09:58.400Z,66.86
2022-09-28T21:12:34.539Z,67.07
2022-09-28T21:15:06.157Z,67.05
2022-09-28T21:17:36.494Z,66.97
2022-09-28T21:20:07.440Z,66.95
2022-09-28T21:22:38.161Z,67.09
2022-09-28T21:25:08.643Z,67.12
2022-09-28T21:27:39.197Z,66.77
2022-09-28T21:30:10.610Z,66.93
2022-09-28T21:32:40.776Z,67.03
2022-09-28T21:35:11.171Z,67.00
2022-09-28T21:37:41.773Z,67.24
2022-09-28T21:40:13.598Z,67.02
2022-09-28T21:42:43.847Z,67.09
2022-09-28T21:45:14.172Z,67.09
2022-09-28T21:47:47.980Z,67.16
2022-09-28T21:50:18.362Z,67.12
2022-09-28T21:52:48.570Z,67.00
2022-09-28T21:55:19.938Z,67.13
